Pagina principală
METAR-TAF:

METAR-TAF

Aeroporturi :

Guaratinguetá, São Paulo, Brazilia

Latitudine: 22-47S, longitudine: 045-12W, elevație: 537 m

Observații meteo curente

Raportul a fost făcut în urmă cu 2 ore și 42 de minute, la 22:00 UTC
Vânt 1 kt din direcții variabile
Temperatură 17°C
Umiditate 55%
Presiune 1025 hPa
Vizibilitate de 10 km sau mai mult
nu există nori sub 1.500 m și nici cumulonimbus

METAR: SBGW 232200Z VRB01KT CAVOK 17/08 Q1025

Ora: 21:42 (00:42 UTC)

Prognoză

Raportul a fost făcut în urmă cu 8 ore și 42 de minute, la 16:00 UTC
Prognoză valabilă de la 23 ora 18 UTC la 24 ora 06 UTC
Vânt 4 kt din direcții variabile
Vizibilitate de 10 km sau mai mult
nu există nori sub 1.500 m și nici cumulonimbus

TAF: SBGW 231600Z 2318/2406 VRB04KT CAVOK TX24/2318Z TN11/2406Z RMK PFR

Observații și prognoze meteo pentru peste 4.000 de aeroporturi (rapoarte METAR și TAF).

Stațiile disponibile sunt reprezentate pe hartă prin puncte galbene și roșii.

Țineți indicatorul mouse-ului pe punctul dorit pentru a vedea denumirea stației.

Apoi, faceți clic pentru a vedea observațiile și prognozele meteorologice.

Pentru a schimba harta: Pentru mărire, faceți clic pe butoanele verzi cu cruce neagră; pentru micșorare, pe butonul verde cu o liniuță; pentru hărți învecinate, pe săgețile verzi.


METAR-TAF: